sensor_id;sensor_type;location;lat;lon;timestamp;temperature;humidity
5344;DHT22;2694;48.954;8.928;2024-03-02T00:01:15;5.10;99.90
5344;DHT22;2694;48.954;8.928;2024-03-02T00:03:42;5.10;99.90
5344;DHT22;2694;48.954;8.928;2024-03-02T00:06:10;5.10;99.90
5344;DHT22;2694;48.954;8.928;2024-03-02T00:08:38;5.00;99.90
5344;DHT22;2694;48.954;8.928;2024-03-02T00:11:05;5.10;99.90
5344;DHT22;2694;48.954;8.928;2024-03-02T00:13:32;5.00;99.90
5344;DHT22;2694;48.954;8.928;2024-03-02T00:16:00;4.90;99.90
5344;DHT22;2694;48.954;8.928;2024-03-02T00:18:31;5.00;99.90
5344;DHT22;2694;48.954;8.928;2024-03-02T00:20:59;5.00;99.90
5344;DHT22;2694;48.954;8.928;2024-03-02T00:23:29;4.90;99.90
5344;DHT22;2694;48.954;8.928;2024-03-02T00:25:58;4.80;99.90
5344;DHT22;2694;48.954;8.928;2024-03-02T00:28:28;4.80;99.90
5344;DHT22;2694;48.954;8.928;2024-03-02T00:30:58;4.80;99.90
5344;DHT22;2694;48.954;8.928;2024-03-02T00:33:27;4.80;99.90
5344;DHT22;2694;48.954;8.928;2024-03-02T00:35:55;4.80;99.90
5344;DHT22;2694;48.954;8.928;2024-03-02T00:38:22;4.80;99.90
5344;DHT22;2694;48.954;8.928;2024-03-02T00:40:49;4.70;99.90
5344;DHT22;2694;48.954;8.928;2024-03-02T00:43:42;4.70;99.90
5344;DHT22;2694;48.954;8.928;2024-03-02T00:46:11;4.70;99.90
5344;DHT22;2694;48.954;8.928;2024-03-02T00:48:38;4.70;99.90
5344;DHT22;2694;48.954;8.928;2024-03-02T00:51:08;4.80;99.90
5344;DHT22;2694;48.954;8.928;2024-03-02T00:53:35;4.80;99.90
5344;DHT22;2694;48.954;8.928;2024-03-02T00:56:02;4.70;99.90
5344;DHT22;2694;48.954;8.928;2024-03-02T00:58:30;4.70;99.90
5344;DHT22;2694;48.954;8.928;2024-03-02T01:00:57;4.70;99.90
5344;DHT22;2694;48.954;8.928;2024-03-02T01:03:23;4.60;99.90
5344;DHT22;2694;48.954;8.928;2024-03-02T01:05:50;4.60;99.90
5344;DHT22;2694;48.954;8.928;2024-03-02T01:08:17;4.50;99.90
5344;DHT22;2694;48.954;8.928;2024-03-02T01:10:43;4.40;99.90
5344;DHT22;2694;48.954;8.928;2024-03-02T01:13:10;4.40;99.90
5344;DHT22;2694;48.954;8.928;2024-03-02T01:15:38;4.30;99.90
5344;DHT22;2694;48.954;8.928;2024-03-02T01:18:05;4.50;99.90
5344;DHT22;2694;48.954;8.928;2024-03-02T01:20:32;4.50;99.90
5344;DHT22;2694;48.954;8.928;2024-03-02T01:22:59;4.40;99.90
5344;DHT22;2694;48.954;8.928;2024-03-02T01:25:25;4.30;99.90
5344;DHT22;2694;48.954;8.928;2024-03-02T01:27:52;4.20;99.90
5344;DHT22;2694;48.954;8.928;2024-03-02T01:30:19;4.20;99.90
5344;DHT22;2694;48.954;8.928;2024-03-02T01:32:48;4.20;99.90
5344;DHT22;2694;48.954;8.928;2024-03-02T01:35:14;4.20;99.90
5344;DHT22;2694;48.954;8.928;2024-03-02T01:37:41;4.10;99.90
5344;DHT22;2694;48.954;8.928;2024-03-02T01:40:09;4.20;99.90
5344;DHT22;2694;48.954;8.928;2024-03-02T01:42:36;4.00;99.90
5344;DHT22;2694;48.954;8.928;2024-03-02T01:45:04;3.90;99.90
5344;DHT22;2694;48.954;8.928;2024-03-02T01:47:31;3.80;99.90
5344;DHT22;2694;48.954;8.928;2024-03-02T01:50:00;3.80;99.90
5344;DHT22;2694;48.954;8.928;2024-03-02T01:52:27;3.70;99.90
5344;DHT22;2694;48.954;8.928;2024-03-02T01:54:55;3.70;99.90
5344;DHT22;2694;48.954;8.928;2024-03-02T01:57:21;3.80;99.90
5344;DHT22;2694;48.954;8.928;2024-03-02T01:59:48;3.70;99.90
5344;DHT22;2694;48.954;8.928;2024-03-02T02:02:16;3.70;99.90
5344;DHT22;2694;48.954;8.928;2024-03-02T02:04:43;3.60;99.90
5344;DHT22;2694;48.954;8.928;2024-03-02T02:07:11;3.50;99.90
5344;DHT22;2694;48.954;8.928;2024-03-02T02:09:39;3.50;99.90
5344;DHT22;2694;48.954;8.928;2024-03-02T02:12:07;3.50;99.90
5344;DHT22;2694;48.954;8.928;2024-03-02T02:14:33;3.40;99.90
5344;DHT22;2694;48.954;8.928;2024-03-02T02:17:00;3.40;99.90
5344;DHT22;2694;48.954;8.928;2024-03-02T02:19:27;3.30;99.90
5344;DHT22;2694;48.954;8.928;2024-03-02T02:21:55;3.40;99.90
5344;DHT22;2694;48.954;8.928;2024-03-02T02:24:22;3.40;99.90
5344;DHT22;2694;48.954;8.928;2024-03-02T02:26:49;3.40;99.90
5344;DHT22;2694;48.954;8.928;2024-03-02T02:29:15;3.30;99.90
5344;DHT22;2694;48.954;8.928;2024-03-02T02:31:42;3.20;99.90
5344;DHT22;2694;48.954;8.928;2024-03-02T02:34:09;3.10;99.90
5344;DHT22;2694;48.954;8.928;2024-03-02T02:36:38;3.10;99.90
5344;DHT22;2694;48.954;8.928;2024-03-02T02:39:09;3.10;99.90
5344;DHT22;2694;48.954;8.928;2024-03-02T02:41:37;3.00;99.90
5344;DHT22;2694;48.954;8.928;2024-03-02T02:44:04;3.00;99.90
5344;DHT22;2694;48.954;8.928;2024-03-02T02:46:31;3.00;99.90
5344;DHT22;2694;48.954;8.928;2024-03-02T02:48:58;3.00;99.90
5344;DHT22;2694;48.954;8.928;2024-03-02T02:51:24;3.00;99.90
5344;DHT22;2694;48.954;8.928;2024-03-02T02:53:52;3.00;99.90
5344;DHT22;2694;48.954;8.928;2024-03-02T02:56:20;2.90;99.90
5344;DHT22;2694;48.954;8.928;2024-03-02T02:58:46;3.00;99.90
5344;DHT22;2694;48.954;8.928;2024-03-02T03:01:14;2.90;99.90
5344;DHT22;2694;48.954;8.928;2024-03-02T03:03:42;2.90;99.90
5344;DHT22;2694;48.954;8.928;2024-03-02T03:06:09;2.90;99.90
5344;DHT22;2694;48.954;8.928;2024-03-02T03:08:36;2.90;99.90
5344;DHT22;2694;48.954;8.928;2024-03-02T03:11:03;2.90;99.90
5344;DHT22;2694;48.954;8.928;2024-03-02T03:13:31;2.90;99.90
5344;DHT22;2694;48.954;8.928;2024-03-02T03:15:58;3.00;99.90
5344;DHT22;2694;48.954;8.928;2024-03-02T03:18:25;3.00;99.90
5344;DHT22;2694;48.954;8.928;2024-03-02T03:20:52;2.90;99.90
5344;DHT22;2694;48.954;8.928;2024-03-02T03:23:19;3.10;99.90
5344;DHT22;2694;48.954;8.928;2024-03-02T03:25:46;3.10;99.90
5344;DHT22;2694;48.954;8.928;2024-03-02T03:28:13;3.00;99.90
5344;DHT22;2694;48.954;8.928;2024-03-02T03:30:41;2.90;99.90
5344;DHT22;2694;48.954;8.928;2024-03-02T03:33:08;2.90;99.90
5344;DHT22;2694;48.954;8.928;2024-03-02T03:35:36;2.90;99.90
5344;DHT22;2694;48.954;8.928;2024-03-02T03:38:03;2.90;99.90
5344;DHT22;2694;48.954;8.928;2024-03-02T03:40:30;2.90;99.90
5344;DHT22;2694;48.954;8.928;2024-03-02T03:42:56;3.00;99.90
5344;DHT22;2694;48.954;8.928;2024-03-02T03:45:23;3.10;99.90
5344;DHT22;2694;48.954;8.928;2024-03-02T03:47:53;3.00;99.90
5344;DHT22;2694;48.954;8.928;2024-03-02T03:50:19;3.00;99.90
5344;DHT22;2694;48.954;8.928;2024-03-02T03:52:46;3.00;99.90
5344;DHT22;2694;48.954;8.928;2024-03-02T03:55:13;3.00;99.90
5344;DHT22;2694;48.954;8.928;2024-03-02T03:57:40;3.00;99.90
5344;DHT22;2694;48.954;8.928;2024-03-02T04:00:08;3.00;99.90
5344;DHT22;2694;48.954;8.928;2024-03-02T04:02:35;3.00;99.90
5344;DHT22;2694;48.954;8.928;2024-03-02T04:05:04;3.00;99.90
5344;DHT22;2694;48.954;8.928;2024-03-02T04:07:35;3.00;99.90
5344;DHT22;2694;48.954;8.928;2024-03-02T04:10:06;3.10;99.90
5344;DHT22;2694;48.954;8.928;2024-03-02T04:12:34;3.10;99.90
5344;DHT22;2694;48.954;8.928;2024-03-02T04:15:01;3.10;99.90
5344;DHT22;2694;48.954;8.928;2024-03-02T04:17:31;3.00;99.90
5344;DHT22;2694;48.954;8.928;2024-03-02T04:19:58;3.00;99.90
5344;DHT22;2694;48.954;8.928;2024-03-02T04:22:26;2.90;99.90
5344;DHT22;2694;48.954;8.928;2024-03-02T04:24:53;3.00;99.90
5344;DHT22;2694;48.954;8.928;2024-03-02T04:27:20;3.00;99.90
5344;DHT22;2694;48.954;8.928;2024-03-02T04:29:47;3.00;99.90
5344;DHT22;2694;48.954;8.928;2024-03-02T04:32:13;3.00;99.90
5344;DHT22;2694;48.954;8.928;2024-03-02T04:34:40;2.90;99.90
5344;DHT22;2694;48.954;8.928;2024-03-02T04:37:07;2.90;99.90
5344;DHT22;2694;48.954;8.928;2024-03-02T04:39:36;3.10;99.90
5344;DHT22;2694;48.954;8.928;2024-03-02T04:42:03;4.40;99.90
5344;DHT22;2694;48.954;8.928;2024-03-02T04:44:30;3.10;99.90
5344;DHT22;2694;48.954;8.928;2024-03-02T04:46:56;3.10;99.90
5344;DHT22;2694;48.954;8.928;2024-03-02T04:49:23;3.00;99.90
5344;DHT22;2694;48.954;8.928;2024-03-02T04:51:50;3.00;99.90
5344;DHT22;2694;48.954;8.928;2024-03-02T04:54:17;3.00;99.90
5344;DHT22;2694;48.954;8.928;2024-03-02T04:56:45;3.00;99.90
5344;DHT22;2694;48.954;8.928;2024-03-02T04:59:15;3.00;99.90
5344;DHT22;2694;48.954;8.928;2024-03-02T05:01:42;3.00;99.90
5344;DHT22;2694;48.954;8.928;2024-03-02T05:04:09;3.10;99.90
5344;DHT22;2694;48.954;8.928;2024-03-02T05:06:37;3.10;99.90
5344;DHT22;2694;48.954;8.928;2024-03-02T05:09:05;3.10;99.90
5344;DHT22;2694;48.954;8.928;2024-03-02T05:11:31;3.00;99.90
5344;DHT22;2694;48.954;8.928;2024-03-02T05:14:25;3.10;99.90
5344;DHT22;2694;48.954;8.928;2024-03-02T05:16:52;2.20;99.90
5344;DHT22;2694;48.954;8.928;2024-03-02T05:19:19;3.20;99.90
5344;DHT22;2694;48.954;8.928;2024-03-02T05:21:46;3.20;99.90
5344;DHT22;2694;48.954;8.928;2024-03-02T05:24:12;3.20;99.90
5344;DHT22;2694;48.954;8.928;2024-03-02T05:26:39;3.20;99.90
5344;DHT22;2694;48.954;8.928;2024-03-02T05:29:06;3.20;99.90
5344;DHT22;2694;48.954;8.928;2024-03-02T05:31:34;3.20;99.90
5344;DHT22;2694;48.954;8.928;2024-03-02T05:34:00;3.30;99.90
5344;DHT22;2694;48.954;8.928;2024-03-02T05:36:28;3.40;99.90
5344;DHT22;2694;48.954;8.928;2024-03-02T05:38:55;3.30;99.90
5344;DHT22;2694;48.954;8.928;2024-03-02T05:41:21;3.30;99.90
5344;DHT22;2694;48.954;8.928;2024-03-02T05:43:48;3.30;99.90
5344;DHT22;2694;48.954;8.928;2024-03-02T05:46:15;3.40;99.90
5344;DHT22;2694;48.954;8.928;2024-03-02T05:48:43;3.30;99.90
5344;DHT22;2694;48.954;8.928;2024-03-02T05:51:10;3.30;99.90
5344;DHT22;2694;48.954;8.928;2024-03-02T05:53:37;3.20;99.90
5344;DHT22;2694;48.954;8.928;2024-03-02T05:56:04;3.20;99.90
5344;DHT22;2694;48.954;8.928;2024-03-02T05:58:31;3.30;99.90
5344;DHT22;2694;48.954;8.928;2024-03-02T06:01:13;3.30;99.90
5344;DHT22;2694;48.954;8.928;2024-03-02T06:03:40;3.30;99.90
5344;DHT22;2694;48.954;8.928;2024-03-02T06:06:08;3.30;99.90
5344;DHT22;2694;48.954;8.928;2024-03-02T06:08:35;3.30;99.90
5344;DHT22;2694;48.954;8.928;2024-03-02T06:11:02;3.40;99.90
5344;DHT22;2694;48.954;8.928;2024-03-02T06:13:29;3.40;99.90
5344;DHT22;2694;48.954;8.928;2024-03-02T06:15:56;3.50;99.90
5344;DHT22;2694;48.954;8.928;2024-03-02T06:18:23;3.30;99.90
5344;DHT22;2694;48.954;8.928;2024-03-02T06:20:50;3.30;99.90
5344;DHT22;2694;48.954;8.928;2024-03-02T06:23:18;3.30;99.90
5344;DHT22;2694;48.954;8.928;2024-03-02T06:25:45;3.40;99.90
5344;DHT22;2694;48.954;8.928;2024-03-02T06:28:11;3.50;99.90
5344;DHT22;2694;48.954;8.928;2024-03-02T06:30:41;3.50;99.90
5344;DHT22;2694;48.954;8.928;2024-03-02T06:33:07;3.50;99.90
5344;DHT22;2694;48.954;8.928;2024-03-02T06:35:34;3.50;99.90
5344;DHT22;2694;48.954;8.928;2024-03-02T06:38:01;3.50;99.90
5344;DHT22;2694;48.954;8.928;2024-03-02T06:40:29;3.50;99.90
5344;DHT22;2694;48.954;8.928;2024-03-02T06:42:56;3.50;99.90
5344;DHT22;2694;48.954;8.928;2024-03-02T06:45:23;3.60;99.90
5344;DHT22;2694;48.954;8.928;2024-03-02T06:47:50;3.60;99.90
5344;DHT22;2694;48.954;8.928;2024-03-02T06:50:16;3.60;99.90
5344;DHT22;2694;48.954;8.928;2024-03-02T06:52:43;3.80;99.90
5344;DHT22;2694;48.954;8.928;2024-03-02T06:55:10;3.80;99.90
5344;DHT22;2694;48.954;8.928;2024-03-02T06:57:38;3.80;99.90
5344;DHT22;2694;48.954;8.928;2024-03-02T07:00:05;3.80;99.90
5344;DHT22;2694;48.954;8.928;2024-03-02T07:02:34;3.80;99.90
5344;DHT22;2694;48.954;8.928;2024-03-02T07:05:01;3.70;99.90
5344;DHT22;2694;48.954;8.928;2024-03-02T07:07:28;3.70;99.90
5344;DHT22;2694;48.954;8.928;2024-03-02T07:09:55;3.80;99.90
5344;DHT22;2694;48.954;8.928;2024-03-02T07:12:21;3.80;99.90
5344;DHT22;2694;48.954;8.928;2024-03-02T07:14:49;3.90;99.90
5344;DHT22;2694;48.954;8.928;2024-03-02T07:17:44;3.90;99.90
5344;DHT22;2694;48.954;8.928;2024-03-02T07:20:11;4.00;99.90
5344;DHT22;2694;48.954;8.928;2024-03-02T07:22:38;4.00;99.90
5344;DHT22;2694;48.954;8.928;2024-03-02T07:25:05;4.10;99.90
5344;DHT22;2694;48.954;8.928;2024-03-02T07:27:33;4.10;99.90
5344;DHT22;2694;48.954;8.928;2024-03-02T07:30:02;4.10;99.90
5344;DHT22;2694;48.954;8.928;2024-03-02T07:32:29;4.10;99.90
5344;DHT22;2694;48.954;8.928;2024-03-02T07:34:55;4.20;99.90
5344;DHT22;2694;48.954;8.928;2024-03-02T07:37:22;4.20;99.90
5344;DHT22;2694;48.954;8.928;2024-03-02T07:39:50;4.10;99.90
5344;DHT22;2694;48.954;8.928;2024-03-02T07:42:16;4.20;99.90
5344;DHT22;2694;48.954;8.928;2024-03-02T07:44:44;4.20;99.90
5344;DHT22;2694;48.954;8.928;2024-03-02T07:47:12;4.10;99.90
5344;DHT22;2694;48.954;8.928;2024-03-02T07:49:39;4.20;99.90
5344;DHT22;2694;48.954;8.928;2024-03-02T07:52:05;4.30;99.90
5344;DHT22;2694;48.954;8.928;2024-03-02T07:54:32;4.40;99.90
5344;DHT22;2694;48.954;8.928;2024-03-02T07:56:59;4.40;99.90
5344;DHT22;2694;48.954;8.928;2024-03-02T07:59:26;4.50;99.90
5344;DHT22;2694;48.954;8.928;2024-03-02T08:01:53;4.60;99.90
5344;DHT22;2694;48.954;8.928;2024-03-02T08:04:22;4.50;99.90
5344;DHT22;2694;48.954;8.928;2024-03-02T08:06:49;4.50;99.90
5344;DHT22;2694;48.954;8.928;2024-03-02T08:09:15;4.60;99.90
5344;DHT22;2694;48.954;8.928;2024-03-02T08:11:42;4.60;99.90
5344;DHT22;2694;48.954;8.928;2024-03-02T08:14:09;4.70;99.90
5344;DHT22;2694;48.954;8.928;2024-03-02T08:16:36;4.80;99.90
5344;DHT22;2694;48.954;8.928;2024-03-02T08:19:03;5.00;99.90
5344;DHT22;2694;48.954;8.928;2024-03-02T08:21:31;5.20;99.90
5344;DHT22;2694;48.954;8.928;2024-03-02T08:24:00;5.40;99.90
5344;DHT22;2694;48.954;8.928;2024-03-02T08:26:27;5.60;99.90
5344;DHT22;2694;48.954;8.928;2024-03-02T08:28:57;5.90;99.90
5344;DHT22;2694;48.954;8.928;2024-03-02T08:31:23;6.00;99.90
5344;DHT22;2694;48.954;8.928;2024-03-02T08:33:50;6.20;99.90
5344;DHT22;2694;48.954;8.928;2024-03-02T08:36:17;6.40;99.90
5344;DHT22;2694;48.954;8.928;2024-03-02T08:38:45;6.50;99.90
5344;DHT22;2694;48.954;8.928;2024-03-02T08:41:12;6.60;99.90
5344;DHT22;2694;48.954;8.928;2024-03-02T08:43:42;6.70;99.90
5344;DHT22;2694;48.954;8.928;2024-03-02T08:46:08;6.80;99.90
5344;DHT22;2694;48.954;8.928;2024-03-02T08:48:35;7.00;99.90
5344;DHT22;2694;48.954;8.928;2024-03-02T08:51:02;7.20;99.90
5344;DHT22;2694;48.954;8.928;2024-03-02T08:53:31;7.50;99.90
5344;DHT22;2694;48.954;8.928;2024-03-02T08:55:59;7.60;99.90
5344;DHT22;2694;48.954;8.928;2024-03-02T08:58:26;7.80;99.90
5344;DHT22;2694;48.954;8.928;2024-03-02T09:00:53;7.90;99.90
5344;DHT22;2694;48.954;8.928;2024-03-02T09:03:20;8.10;99.90
5344;DHT22;2694;48.954;8.928;2024-03-02T09:05:46;8.20;99.90
5344;DHT22;2694;48.954;8.928;2024-03-02T09:08:13;8.30;99.90
5344;DHT22;2694;48.954;8.928;2024-03-02T09:10:40;8.50;99.90
5344;DHT22;2694;48.954;8.928;2024-03-02T09:13:08;8.80;99.90
5344;DHT22;2694;48.954;8.928;2024-03-02T09:15:36;9.00;99.90
5344;DHT22;2694;48.954;8.928;2024-03-02T09:18:05;9.20;99.90
5344;DHT22;2694;48.954;8.928;2024-03-02T09:20:32;9.40;99.90
5344;DHT22;2694;48.954;8.928;2024-03-02T09:22:59;9.50;99.90
5344;DHT22;2694;48.954;8.928;2024-03-02T09:25:25;9.60;99.90
5344;DHT22;2694;48.954;8.928;2024-03-02T09:27:52;9.90;99.90
5344;DHT22;2694;48.954;8.928;2024-03-02T09:30:19;10.00;99.90
5344;DHT22;2694;48.954;8.928;2024-03-02T09:32:46;10.30;99.90
5344;DHT22;2694;48.954;8.928;2024-03-02T09:35:13;10.40;99.90
5344;DHT22;2694;48.954;8.928;2024-03-02T09:37:40;10.50;99.90
5344;DHT22;2694;48.954;8.928;2024-03-02T09:40:07;10.50;99.90
5344;DHT22;2694;48.954;8.928;2024-03-02T09:42:35;10.60;99.90
5344;DHT22;2694;48.954;8.928;2024-03-02T09:45:02;10.70;99.90
5344;DHT22;2694;48.954;8.928;2024-03-02T09:47:30;10.80;99.90
5344;DHT22;2694;48.954;8.928;2024-03-02T09:49:57;11.30;99.90
5344;DHT22;2694;48.954;8.928;2024-03-02T09:52:24;11.70;99.90
5344;DHT22;2694;48.954;8.928;2024-03-02T09:54:51;11.80;99.90
5344;DHT22;2694;48.954;8.928;2024-03-02T09:57:18;12.00;99.90
5344;DHT22;2694;48.954;8.928;2024-03-02T09:59:44;11.80;99.90
5344;DHT22;2694;48.954;8.928;2024-03-02T10:02:11;11.80;99.90
5344;DHT22;2694;48.954;8.928;2024-03-02T10:04:39;11.80;99.90
5344;DHT22;2694;48.954;8.928;2024-03-02T10:07:10;11.80;99.90
5344;DHT22;2694;48.954;8.928;2024-03-02T10:09:38;12.00;99.90
5344;DHT22;2694;48.954;8.928;2024-03-02T10:12:05;12.00;99.90
5344;DHT22;2694;48.954;8.928;2024-03-02T10:14:32;12.00;99.90
5344;DHT22;2694;48.954;8.928;2024-03-02T10:17:02;12.00;99.90
5344;DHT22;2694;48.954;8.928;2024-03-02T10:19:29;12.20;99.90
5344;DHT22;2694;48.954;8.928;2024-03-02T10:22:00;12.30;99.90
5344;DHT22;2694;48.954;8.928;2024-03-02T10:24:34;12.30;99.90
5344;DHT22;2694;48.954;8.928;2024-03-02T10:27:01;12.30;99.90
5344;DHT22;2694;48.954;8.928;2024-03-02T10:29:29;12.30;99.90
5344;DHT22;2694;48.954;8.928;2024-03-02T10:31:56;12.30;99.90
5344;DHT22;2694;48.954;8.928;2024-03-02T10:34:24;12.30;99.90
5344;DHT22;2694;48.954;8.928;2024-03-02T10:36:51;12.60;99.90
5344;DHT22;2694;48.954;8.928;2024-03-02T10:39:19;12.60;99.90
5344;DHT22;2694;48.954;8.928;2024-03-02T10:41:49;12.80;99.90
5344;DHT22;2694;48.954;8.928;2024-03-02T10:44:19;13.10;99.90
5344;DHT22;2694;48.954;8.928;2024-03-02T10:46:46;12.90;99.90
5344;DHT22;2694;48.954;8.928;2024-03-02T10:49:13;12.90;99.90
5344;DHT22;2694;48.954;8.928;2024-03-02T10:51:40;13.00;99.90
5344;DHT22;2694;48.954;8.928;2024-03-02T10:54:08;13.00;99.90
5344;DHT22;2694;48.954;8.928;2024-03-02T10:56:39;13.10;99.90
5344;DHT22;2694;48.954;8.928;2024-03-02T10:59:16;13.20;99.90
5344;DHT22;2694;48.954;8.928;2024-03-02T11:01:47;13.10;99.90
5344;DHT22;2694;48.954;8.928;2024-03-02T11:04:16;13.30;99.90
5344;DHT22;2694;48.954;8.928;2024-03-02T11:06:46;13.20;99.90
5344;DHT22;2694;48.954;8.928;2024-03-02T11:09:14;13.00;99.90
5344;DHT22;2694;48.954;8.928;2024-03-02T11:11:44;12.80;99.90
5344;DHT22;2694;48.954;8.928;2024-03-02T11:14:14;12.70;99.90
5344;DHT22;2694;48.954;8.928;2024-03-02T11:16:43;12.70;99.90
5344;DHT22;2694;48.954;8.928;2024-03-02T11:19:13;12.80;99.90
5344;DHT22;2694;48.954;8.928;2024-03-02T11:21:40;12.90;99.90
5344;DHT22;2694;48.954;8.928;2024-03-02T11:24:37;13.00;99.90
5344;DHT22;2694;48.954;8.928;2024-03-02T11:27:06;12.90;99.90
5344;DHT22;2694;48.954;8.928;2024-03-02T11:29:43;12.90;99.90
5344;DHT22;2694;48.954;8.928;2024-03-02T11:32:14;13.00;99.90
5344;DHT22;2694;48.954;8.928;2024-03-02T11:34:42;13.10;99.90
5344;DHT22;2694;48.954;8.928;2024-03-02T11:37:12;13.20;99.90
5344;DHT22;2694;48.954;8.928;2024-03-02T11:39:39;13.30;99.90
5344;DHT22;2694;48.954;8.928;2024-03-02T11:42:08;13.20;99.90
5344;DHT22;2694;48.954;8.928;2024-03-02T11:44:35;13.30;99.90
5344;DHT22;2694;48.954;8.928;2024-03-02T11:47:05;13.50;99.90
5344;DHT22;2694;48.954;8.928;2024-03-02T11:49:39;13.60;99.90
5344;DHT22;2694;48.954;8.928;2024-03-02T11:52:08;13.70;99.90
5344;DHT22;2694;48.954;8.928;2024-03-02T11:54:36;13.70;99.90
5344;DHT22;2694;48.954;8.928;2024-03-02T11:57:05;13.70;99.90
5344;DHT22;2694;48.954;8.928;2024-03-02T11:59:33;13.80;99.90
5344;DHT22;2694;48.954;8.928;2024-03-02T12:02:01;13.90;99.90
5344;DHT22;2694;48.954;8.928;2024-03-02T12:04:29;13.80;99.90
5344;DHT22;2694;48.954;8.928;2024-03-02T12:06:57;13.90;99.90
5344;DHT22;2694;48.954;8.928;2024-03-02T12:09:26;13.90;99.90
5344;DHT22;2694;48.954;8.928;2024-03-02T12:12:06;14.00;99.90
5344;DHT22;2694;48.954;8.928;2024-03-02T12:14:36;14.10;99.90
5344;DHT22;2694;48.954;8.928;2024-03-02T12:17:04;14.10;99.90
5344;DHT22;2694;48.954;8.928;2024-03-02T12:19:32;14.10;99.90
5344;DHT22;2694;48.954;8.928;2024-03-02T12:21:59;14.20;99.90
5344;DHT22;2694;48.954;8.928;2024-03-02T12:24:27;14.30;99.90
5344;DHT22;2694;48.954;8.928;2024-03-02T12:26:54;14.40;99.90
5344;DHT22;2694;48.954;8.928;2024-03-02T12:29:21;14.30;99.90
5344;DHT22;2694;48.954;8.928;2024-03-02T12:31:51;14.30;99.90
5344;DHT22;2694;48.954;8.928;2024-03-02T12:34:19;14.40;99.90
5344;DHT22;2694;48.954;8.928;2024-03-02T12:36:46;14.30;99.90
5344;DHT22;2694;48.954;8.928;2024-03-02T12:39:15;14.40;99.90
5344;DHT22;2694;48.954;8.928;2024-03-02T12:41:42;14.40;99.90
5344;DHT22;2694;48.954;8.928;2024-03-02T12:44:09;14.50;99.90
5344;DHT22;2694;48.954;8.928;2024-03-02T12:46:36;14.60;99.90
5344;DHT22;2694;48.954;8.928;2024-03-02T12:49:09;14.50;99.90
5344;DHT22;2694;48.954;8.928;2024-03-02T12:51:37;14.50;99.90
5344;DHT22;2694;48.954;8.928;2024-03-02T12:54:06;14.60;99.90
5344;DHT22;2694;48.954;8.928;2024-03-02T12:56:33;14.70;99.90
5344;DHT22;2694;48.954;8.928;2024-03-02T12:59:00;14.70;99.50
5344;DHT22;2694;48.954;8.928;2024-03-02T13:01:27;14.70;99.30
5344;DHT22;2694;48.954;8.928;2024-03-02T13:03:54;14.70;99.30
5344;DHT22;2694;48.954;8.928;2024-03-02T13:06:24;14.80;99.20
5344;DHT22;2694;48.954;8.928;2024-03-02T13:08:53;14.90;98.80
5344;DHT22;2694;48.954;8.928;2024-03-02T13:11:21;14.90;98.80
5344;DHT22;2694;48.954;8.928;2024-03-02T13:13:48;14.80;98.60
5344;DHT22;2694;48.954;8.928;2024-03-02T13:16:15;14.90;98.90
5344;DHT22;2694;48.954;8.928;2024-03-02T13:18:44;14.80;98.70
5344;DHT22;2694;48.954;8.928;2024-03-02T13:21:11;14.90;98.60
5344;DHT22;2694;48.954;8.928;2024-03-02T13:23:39;15.00;98.60
5344;DHT22;2694;48.954;8.928;2024-03-02T13:26:06;14.90;99.20
5344;DHT22;2694;48.954;8.928;2024-03-02T13:28:36;14.90;99.00
5344;DHT22;2694;48.954;8.928;2024-03-02T13:31:03;15.00;99.10
5344;DHT22;2694;48.954;8.928;2024-03-02T13:33:30;15.00;98.60
5344;DHT22;2694;48.954;8.928;2024-03-02T13:35:58;15.10;99.10
5344;DHT22;2694;48.954;8.928;2024-03-02T13:38:25;15.00;99.10
5344;DHT22;2694;48.954;8.928;2024-03-02T13:40:53;15.00;98.90
5344;DHT22;2694;48.954;8.928;2024-03-02T13:43:20;15.10;97.60
5344;DHT22;2694;48.954;8.928;2024-03-02T13:45:48;15.10;97.30
5344;DHT22;2694;48.954;8.928;2024-03-02T13:48:14;15.20;97.30
5344;DHT22;2694;48.954;8.928;2024-03-02T13:50:41;15.20;96.50
5344;DHT22;2694;48.954;8.928;2024-03-02T13:53:08;15.40;96.20
5344;DHT22;2694;48.954;8.928;2024-03-02T13:55:34;15.30;95.50
5344;DHT22;2694;48.954;8.928;2024-03-02T13:58:03;15.40;95.10
5344;DHT22;2694;48.954;8.928;2024-03-02T14:00:30;15.50;95.90
5344;DHT22;2694;48.954;8.928;2024-03-02T14:02:57;15.50;96.00
5344;DHT22;2694;48.954;8.928;2024-03-02T14:05:24;15.50;96.70
5344;DHT22;2694;48.954;8.928;2024-03-02T14:07:51;15.40;96.10
5344;DHT22;2694;48.954;8.928;2024-03-02T14:10:17;15.30;96.30
5344;DHT22;2694;48.954;8.928;2024-03-02T14:12:47;15.20;96.00
5344;DHT22;2694;48.954;8.928;2024-03-02T14:15:15;15.20;96.30
5344;DHT22;2694;48.954;8.928;2024-03-02T14:17:42;15.20;96.40
5344;DHT22;2694;48.954;8.928;2024-03-02T14:20:10;15.30;96.20
5344;DHT22;2694;48.954;8.928;2024-03-02T14:22:37;15.20;96.00
5344;DHT22;2694;48.954;8.928;2024-03-02T14:25:04;15.10;96.10
5344;DHT22;2694;48.954;8.928;2024-03-02T14:27:32;15.10;96.10
5344;DHT22;2694;48.954;8.928;2024-03-02T14:29:59;15.10;96.00
5344;DHT22;2694;48.954;8.928;2024-03-02T14:32:27;15.10;96.00
5344;DHT22;2694;48.954;8.928;2024-03-02T14:34:54;15.20;95.70
5344;DHT22;2694;48.954;8.928;2024-03-02T14:37:21;15.30;96.70
5344;DHT22;2694;48.954;8.928;2024-03-02T14:39:48;15.40;96.50
5344;DHT22;2694;48.954;8.928;2024-03-02T14:42:15;15.50;97.00
5344;DHT22;2694;48.954;8.928;2024-03-02T14:44:42;15.60;96.70
5344;DHT22;2694;48.954;8.928;2024-03-02T14:47:09;15.70;96.30
5344;DHT22;2694;48.954;8.928;2024-03-02T14:49:37;15.60;96.00
5344;DHT22;2694;48.954;8.928;2024-03-02T14:52:06;15.50;95.90
5344;DHT22;2694;48.954;8.928;2024-03-02T14:54:33;15.50;96.60
5344;DHT22;2694;48.954;8.928;2024-03-02T14:57:00;15.50;96.50
5344;DHT22;2694;48.954;8.928;2024-03-02T14:59:28;15.50;96.60
5344;DHT22;2694;48.954;8.928;2024-03-02T15:01:55;15.40;96.60
5344;DHT22;2694;48.954;8.928;2024-03-02T15:04:22;15.40;96.70
5344;DHT22;2694;48.954;8.928;2024-03-02T15:06:50;15.30;96.90
5344;DHT22;2694;48.954;8.928;2024-03-02T15:09:16;15.30;96.70
5344;DHT22;2694;48.954;8.928;2024-03-02T15:11:45;15.30;96.70
5344;DHT22;2694;48.954;8.928;2024-03-02T15:14:12;15.30;96.60
5344;DHT22;2694;48.954;8.928;2024-03-02T15:16:39;15.30;96.50
5344;DHT22;2694;48.954;8.928;2024-03-02T15:19:05;15.10;96.40
5344;DHT22;2694;48.954;8.928;2024-03-02T15:21:32;15.00;96.90
5344;DHT22;2694;48.954;8.928;2024-03-02T15:24:00;14.90;96.50
5344;DHT22;2694;48.954;8.928;2024-03-02T15:26:27;14.90;96.30
5344;DHT22;2694;48.954;8.928;2024-03-02T15:28:54;14.80;96.50
5344;DHT22;2694;48.954;8.928;2024-03-02T15:31:21;14.70;96.70
5344;DHT22;2694;48.954;8.928;2024-03-02T15:33:48;14.70;96.60
5344;DHT22;2694;48.954;8.928;2024-03-02T15:36:15;14.60;96.40
5344;DHT22;2694;48.954;8.928;2024-03-02T15:38:42;14.60;96.40
5344;DHT22;2694;48.954;8.928;2024-03-02T15:41:10;14.60;96.40
5344;DHT22;2694;48.954;8.928;2024-03-02T15:43:37;14.50;96.60
5344;DHT22;2694;48.954;8.928;2024-03-02T15:46:06;14.40;96.40
5344;DHT22;2694;48.954;8.928;2024-03-02T15:48:33;14.40;96.40
5344;DHT22;2694;48.954;8.928;2024-03-02T15:50:59;14.50;96.40
5344;DHT22;2694;48.954;8.928;2024-03-02T15:53:28;14.40;96.60
5344;DHT22;2694;48.954;8.928;2024-03-02T15:55:55;14.40;96.60
5344;DHT22;2694;48.954;8.928;2024-03-02T15:58:23;14.30;96.90
5344;DHT22;2694;48.954;8.928;2024-03-02T16:00:50;14.30;97.10
5344;DHT22;2694;48.954;8.928;2024-03-02T16:03:16;14.20;97.20
5344;DHT22;2694;48.954;8.928;2024-03-02T16:05:43;14.20;97.30
5344;DHT22;2694;48.954;8.928;2024-03-02T16:08:10;14.20;97.50
5344;DHT22;2694;48.954;8.928;2024-03-02T16:10:36;14.20;97.40
5344;DHT22;2694;48.954;8.928;2024-03-02T16:13:03;14.20;97.20
5344;DHT22;2694;48.954;8.928;2024-03-02T16:15:32;14.20;97.20